createdAt,value
2017-08-22T00:00:08.499Z,12.60
2017-08-22T00:02:36.090Z,12.70
2017-08-22T00:05:03.679Z,12.60
2017-08-22T00:07:31.226Z,12.60
2017-08-22T00:09:58.784Z,12.50
2017-08-22T00:12:26.300Z,12.40
2017-08-22T00:14:53.895Z,12.40
2017-08-22T00:17:21.426Z,12.40
2017-08-22T00:19:48.941Z,12.30
2017-08-22T00:22:16.580Z,12.30
2017-08-22T00:24:44.114Z,12.20
2017-08-22T00:27:11.692Z,12.20
2017-08-22T00:29:39.319Z,12.20
2017-08-22T00:32:06.884Z,12.10
2017-08-22T00:34:34.435Z,12.10
2017-08-22T00:37:02.090Z,12.10
2017-08-22T00:39:29.594Z,12.00
2017-08-22T00:41:57.844Z,12.00
2017-08-22T00:44:25.456Z,12.00
2017-08-22T00:46:53.005Z,12.00
2017-08-22T00:49:20.546Z,12.00
2017-08-22T00:51:48.137Z,12.00
2017-08-22T00:54:15.640Z,11.90
2017-08-22T00:56:43.230Z,11.90
2017-08-22T00:59:10.770Z,11.90
2017-08-22T01:01:38.357Z,11.80
2017-08-22T01:04:05.893Z,11.70
2017-08-22T01:06:33.373Z,11.60
2017-08-22T01:09:00.939Z,11.50
2017-08-22T01:11:28.461Z,11.40
2017-08-22T01:13:55.975Z,11.30
2017-08-22T01:16:23.528Z,11.30
2017-08-22T01:18:51.069Z,11.20
2017-08-22T01:21:18.782Z,11.10
2017-08-22T01:23:46.344Z,11.10
2017-08-22T01:26:13.885Z,11.00
2017-08-22T01:28:41.589Z,11.00
2017-08-22T01:31:09.141Z,10.90
2017-08-22T01:33:36.699Z,10.80
2017-08-22T01:36:04.419Z,10.80
2017-08-22T01:38:31.948Z,10.80
2017-08-22T01:40:59.478Z,10.70
2017-08-22T01:43:27.053Z,10.70
2017-08-22T01:45:54.615Z,10.70
2017-08-22T01:48:22.153Z,10.70
2017-08-22T01:50:49.713Z,10.70
2017-08-22T01:53:17.268Z,10.60
2017-08-22T01:55:44.805Z,10.60
2017-08-22T01:58:12.505Z,10.60
2017-08-22T02:00:40.074Z,10.50
2017-08-22T02:03:07.661Z,10.50
2017-08-22T02:05:35.235Z,10.50
2017-08-22T02:08:02.744Z,10.50
2017-08-22T02:10:30.286Z,10.40
2017-08-22T02:12:57.874Z,10.40
2017-08-22T02:15:25.408Z,10.40
2017-08-22T02:17:52.872Z,10.30
2017-08-22T02:20:20.456Z,10.30
2017-08-22T02:22:47.922Z,10.30
2017-08-22T02:25:15.484Z,10.30
2017-08-22T02:27:43.057Z,10.20
2017-08-22T02:30:10.612Z,10.20
2017-08-22T02:32:38.160Z,10.20
2017-08-22T02:35:05.775Z,10.10
2017-08-22T02:37:33.313Z,10.20
2017-08-22T02:40:00.841Z,10.20
2017-08-22T02:42:28.377Z,10.20
2017-08-22T02:44:55.929Z,10.20
2017-08-22T02:47:23.477Z,10.10
2017-08-22T02:49:51.068Z,10.10
2017-08-22T02:52:18.619Z,10.10
2017-08-22T02:54:46.163Z,10.20
2017-08-22T02:57:13.737Z,10.20
2017-08-22T02:59:41.291Z,10.10
2017-08-22T03:02:08.796Z,10.10
2017-08-22T03:04:36.559Z,10.10
2017-08-22T03:07:04.096Z,10.10
2017-08-22T03:09:31.633Z,10.10
2017-08-22T03:11:59.154Z,10.10
2017-08-22T03:14:26.728Z,10.10
2017-08-22T03:16:54.300Z,10.20
2017-08-22T03:19:21.870Z,10.20
2017-08-22T03:21:49.410Z,10.10
2017-08-22T03:24:16.972Z,10.00
2017-08-22T03:26:44.720Z,10.00
2017-08-22T03:29:12.260Z,10.00
2017-08-22T03:31:39.807Z,9.90
2017-08-22T03:34:07.366Z,9.80
2017-08-22T03:36:34.943Z,9.70
2017-08-22T03:39:02.497Z,9.70
2017-08-22T03:41:30.035Z,9.70
2017-08-22T03:43:57.552Z,9.70
2017-08-22T03:46:25.122Z,9.60
2017-08-22T03:48:52.683Z,9.70
2017-08-22T03:51:20.229Z,9.70
2017-08-22T03:53:47.800Z,9.80
2017-08-22T03:56:15.526Z,9.80
2017-08-22T03:58:43.055Z,9.90
2017-08-22T04:01:10.608Z,10.00
2017-08-22T04:03:38.228Z,10.20
2017-08-22T04:06:05.845Z,10.30
2017-08-22T04:08:33.366Z,10.50
2017-08-22T04:11:00.942Z,10.60
2017-08-22T04:13:28.669Z,10.70
2017-08-22T04:15:56.231Z,10.80
2017-08-22T04:18:23.940Z,10.80
2017-08-22T04:20:51.526Z,10.80
2017-08-22T04:23:20.772Z,10.90
2017-08-22T04:25:50.264Z,10.90
2017-08-22T04:28:19.235Z,10.90
2017-08-22T04:30:46.859Z,10.90
2017-08-22T04:33:14.428Z,10.90
2017-08-22T04:35:41.960Z,10.90
2017-08-22T04:38:09.486Z,10.90
2017-08-22T04:40:37.017Z,10.90
2017-08-22T04:43:04.582Z,10.90
2017-08-22T04:45:32.120Z,10.90
2017-08-22T04:47:59.864Z,11.00
2017-08-22T04:50:27.422Z,11.10
2017-08-22T04:52:54.979Z,11.20
2017-08-22T04:55:22.669Z,11.40
2017-08-22T04:57:50.250Z,11.40
2017-08-22T05:00:17.921Z,11.50
2017-08-22T05:02:45.650Z,11.60
2017-08-22T05:05:15.869Z,11.70
2017-08-22T05:07:43.390Z,11.80
2017-08-22T05:10:10.965Z,11.90
2017-08-22T05:12:38.481Z,12.00
2017-08-22T05:15:06.065Z,12.10
2017-08-22T05:17:33.598Z,12.20
2017-08-22T05:20:01.158Z,12.40
2017-08-22T05:22:28.696Z,12.50
2017-08-22T05:24:56.297Z,12.60
2017-08-22T05:27:23.830Z,12.80
2017-08-22T05:29:51.384Z,12.90
2017-08-22T05:32:18.960Z,13.10
2017-08-22T05:34:46.510Z,13.20
2017-08-22T05:37:14.071Z,13.40
2017-08-22T05:39:41.696Z,13.50
2017-08-22T05:42:09.209Z,13.50
2017-08-22T05:44:36.769Z,13.50
2017-08-22T05:47:04.297Z,13.60
2017-08-22T05:49:31.830Z,13.70
2017-08-22T05:51:59.368Z,13.80
2017-08-22T05:54:26.977Z,14.20
2017-08-22T05:56:54.483Z,14.70
2017-08-22T05:59:22.056Z,15.00
2017-08-22T06:01:49.641Z,15.10
2017-08-22T06:04:17.155Z,15.30
2017-08-22T06:06:44.706Z,15.20
2017-08-22T06:09:12.235Z,14.90
2017-08-22T06:11:39.785Z,14.80
2017-08-22T06:14:07.327Z,14.50
2017-08-22T06:16:34.894Z,14.30
2017-08-22T06:19:02.461Z,14.00
2017-08-22T06:21:30.003Z,14.00
2017-08-22T06:23:57.596Z,14.00
2017-08-22T06:26:25.140Z,14.00
2017-08-22T06:28:52.690Z,14.20
2017-08-22T06:31:20.295Z,14.30
2017-08-22T06:33:47.832Z,14.50
2017-08-22T06:36:15.404Z,14.70
2017-08-22T06:38:42.978Z,14.80
2017-08-22T06:41:10.536Z,15.00
2017-08-22T06:43:38.059Z,15.20
2017-08-22T06:46:05.604Z,15.50
2017-08-22T06:48:33.171Z,16.10
2017-08-22T06:51:00.720Z,17.10
2017-08-22T06:53:28.258Z,18.00
2017-08-22T06:55:55.864Z,18.80
2017-08-22T06:58:23.387Z,19.00
2017-08-22T07:00:51.100Z,18.90
2017-08-22T07:03:18.600Z,18.70
2017-08-22T07:05:46.163Z,18.60
2017-08-22T07:08:13.758Z,18.20
2017-08-22T07:10:41.345Z,18.10
2017-08-22T07:13:08.892Z,18.30
2017-08-22T07:15:36.501Z,18.50
2017-08-22T07:18:04.060Z,18.60
2017-08-22T07:20:31.637Z,18.60
2017-08-22T07:22:59.208Z,18.70
2017-08-22T07:25:26.749Z,19.10
2017-08-22T07:27:54.459Z,19.10
2017-08-22T07:30:22.149Z,18.70
2017-08-22T07:32:49.681Z,18.40
2017-08-22T07:35:17.228Z,17.90
2017-08-22T07:37:44.811Z,17.70
2017-08-22T07:40:12.378Z,17.70
2017-08-22T07:42:39.931Z,17.80
2017-08-22T07:45:07.526Z,18.20
2017-08-22T07:47:35.083Z,18.60
2017-08-22T07:50:02.632Z,19.10
2017-08-22T07:52:30.377Z,19.10
2017-08-22T07:54:58.851Z,19.20
2017-08-22T07:57:26.405Z,19.20
2017-08-22T07:59:53.976Z,18.90
2017-08-22T08:02:21.518Z,18.90
2017-08-22T08:04:49.045Z,19.10
2017-08-22T08:07:16.728Z,19.10
2017-08-22T08:09:44.308Z,19.00
2017-08-22T08:12:11.838Z,19.20
2017-08-22T08:14:39.426Z,20.00
2017-08-22T08:17:06.978Z,20.50
2017-08-22T08:19:34.564Z,20.50
2017-08-22T08:22:02.293Z,20.20
2017-08-22T08:24:29.800Z,19.60
2017-08-22T08:26:57.442Z,19.60
2017-08-22T08:29:25.148Z,19.60
2017-08-22T08:31:52.721Z,19.80
2017-08-22T08:34:20.391Z,20.50
2017-08-22T08:36:48.153Z,21.60
2017-08-22T08:39:15.693Z,22.50
2017-08-22T08:41:43.368Z,23.60
2017-08-22T08:44:10.928Z,25.20
2017-08-22T08:46:38.487Z,25.60
2017-08-22T08:49:06.033Z,26.10
2017-08-22T08:51:33.992Z,26.40
2017-08-22T08:54:01.557Z,26.50
2017-08-22T08:56:29.103Z,25.90
2017-08-22T08:58:56.860Z,25.80
2017-08-22T09:01:24.405Z,25.70
2017-08-22T09:03:51.909Z,25.80
2017-08-22T09:06:19.577Z,25.20
2017-08-22T09:08:47.142Z,24.60
2017-08-22T09:11:14.659Z,23.40
2017-08-22T09:13:42.234Z,22.10
2017-08-22T09:16:09.802Z,20.60
2017-08-22T09:18:37.373Z,19.70
2017-08-22T09:21:04.972Z,18.70
2017-08-22T09:23:32.490Z,18.20
2017-08-22T09:26:02.599Z,17.70
2017-08-22T09:28:30.216Z,17.20
2017-08-22T09:30:57.757Z,16.90
2017-08-22T09:33:25.522Z,16.90
2017-08-22T09:35:53.294Z,17.00
2017-08-22T09:38:20.867Z,17.60
2017-08-22T09:40:48.391Z,20.30
2017-08-22T09:43:16.019Z,23.00
2017-08-22T09:45:43.640Z,23.80
2017-08-22T09:48:11.200Z,23.10
2017-08-22T09:50:38.821Z,22.20
2017-08-22T09:53:06.371Z,21.20
2017-08-22T09:55:33.979Z,20.60
2017-08-22T09:58:01.526Z,19.80
2017-08-22T10:00:29.047Z,19.50
2017-08-22T10:02:56.606Z,19.40
2017-08-22T10:05:24.183Z,19.50
2017-08-22T10:07:51.746Z,20.50
2017-08-22T10:10:19.338Z,21.70
2017-08-22T10:12:46.943Z,22.30
2017-08-22T10:15:14.451Z,22.40
2017-08-22T10:17:41.999Z,22.10
2017-08-22T10:20:09.605Z,21.90
2017-08-22T10:22:37.122Z,21.40
2017-08-22T10:25:05.795Z,21.10
2017-08-22T10:27:33.597Z,20.50
2017-08-22T10:30:01.146Z,20.20
2017-08-22T10:32:28.769Z,19.90
2017-08-22T10:34:56.421Z,19.50
2017-08-22T10:37:23.947Z,20.30
2017-08-22T10:39:51.525Z,21.40
2017-08-22T10:42:19.127Z,22.80
2017-08-22T10:44:46.709Z,23.50
2017-08-22T10:47:14.268Z,24.40
2017-08-22T10:49:41.805Z,24.50
2017-08-22T10:52:09.381Z,24.10
2017-08-22T10:54:36.954Z,24.10
2017-08-22T10:57:04.565Z,23.70
2017-08-22T10:59:32.136Z,23.70
2017-08-22T11:01:59.699Z,22.50
2017-08-22T11:04:27.283Z,21.90
2017-08-22T11:06:55.156Z,21.70
2017-08-22T11:09:22.714Z,21.50
2017-08-22T11:11:50.351Z,21.20
2017-08-22T11:14:17.946Z,21.90
2017-08-22T11:16:45.468Z,22.20
2017-08-22T11:19:13.163Z,22.30
2017-08-22T11:21:40.708Z,23.10
2017-08-22T11:24:08.214Z,24.40
2017-08-22T11:26:35.757Z,25.70
2017-08-22T11:29:03.329Z,26.60
2017-08-22T11:31:30.876Z,26.90
2017-08-22T11:33:58.596Z,27.00
2017-08-22T11:36:26.122Z,27.00
2017-08-22T11:38:53.660Z,26.60
2017-08-22T11:41:21.272Z,26.20
2017-08-22T11:43:48.804Z,25.50
2017-08-22T11:46:16.365Z,25.00
2017-08-22T11:48:43.983Z,23.60
2017-08-22T11:51:11.517Z,22.70
2017-08-22T11:53:39.070Z,22.30
2017-08-22T11:56:06.680Z,21.80
2017-08-22T11:58:34.254Z,21.80
2017-08-22T12:01:01.813Z,21.80
2017-08-22T12:03:29.544Z,21.80
2017-08-22T12:05:57.095Z,21.70
2017-08-22T12:08:24.969Z,22.10
2017-08-22T12:10:52.537Z,22.80
2017-08-22T12:13:20.104Z,23.20
2017-08-22T12:15:47.682Z,23.60
2017-08-22T12:18:15.262Z,23.50
2017-08-22T12:20:44.045Z,23.40
2017-08-22T12:23:11.630Z,23.60
2017-08-22T12:25:39.238Z,23.30
2017-08-22T12:28:06.824Z,23.00
2017-08-22T12:30:34.414Z,23.00
2017-08-22T12:33:02.153Z,22.70
2017-08-22T12:35:29.671Z,22.40
2017-08-22T12:37:57.234Z,22.50
2017-08-22T12:40:24.841Z,22.60
2017-08-22T12:42:52.415Z,22.60
2017-08-22T12:45:20.935Z,22.30
2017-08-22T12:47:48.590Z,22.30
2017-08-22T12:50:16.199Z,21.80
2017-08-22T12:52:43.817Z,21.70
2017-08-22T12:55:11.706Z,21.60
2017-08-22T12:57:39.267Z,21.30
2017-08-22T13:00:06.811Z,21.10
2017-08-22T13:02:34.372Z,20.70
2017-08-22T13:05:01.883Z,21.00
2017-08-22T13:07:31.169Z,21.70
2017-08-22T13:09:58.789Z,22.00
2017-08-22T13:12:26.410Z,22.30
2017-08-22T13:14:54.698Z,22.20
2017-08-22T13:17:22.366Z,22.30
2017-08-22T13:19:49.960Z,21.90
2017-08-22T13:22:18.349Z,21.40
2017-08-22T13:24:46.934Z,20.90
2017-08-22T13:27:15.328Z,18.90
2017-08-22T13:29:43.652Z,18.30
2017-08-22T13:32:11.389Z,18.30
2017-08-22T13:34:38.926Z,18.10
2017-08-22T13:37:06.512Z,18.00
2017-08-22T13:39:34.134Z,18.10
2017-08-22T13:42:01.709Z,18.40
2017-08-22T13:44:29.288Z,18.80
2017-08-22T13:46:56.877Z,19.30
2017-08-22T13:49:24.447Z,20.00
2017-08-22T13:51:52.068Z,20.50
2017-08-22T13:54:19.818Z,20.60
2017-08-22T13:56:47.439Z,20.80
2017-08-22T13:59:15.047Z,21.40
2017-08-22T14:01:42.822Z,21.40
2017-08-22T14:04:11.130Z,21.20
2017-08-22T14:09:29.095Z,20.90
2017-08-22T14:11:56.664Z,20.90
2017-08-22T14:14:24.191Z,20.60
2017-08-22T14:16:51.837Z,20.70
2017-08-22T14:19:19.505Z,20.90
2017-08-22T14:21:47.152Z,20.90
2017-08-22T14:24:14.999Z,21.00
2017-08-22T14:26:42.584Z,20.80
2017-08-22T14:29:11.115Z,20.20
2017-08-22T14:31:38.755Z,19.50
2017-08-22T14:34:07.063Z,18.60
2017-08-22T14:36:34.658Z,18.20
2017-08-22T14:39:02.257Z,17.70
2017-08-22T14:41:29.831Z,17.90
2017-08-22T14:43:57.381Z,18.10
2017-08-22T14:46:25.018Z,18.40
2017-08-22T14:48:52.621Z,18.50
2017-08-22T14:51:20.219Z,18.90
2017-08-22T14:53:48.690Z,19.10
2017-08-22T14:56:16.318Z,19.30
2017-08-22T14:58:43.821Z,19.60
2017-08-22T15:01:11.442Z,19.90
2017-08-22T15:03:39.069Z,19.90
2017-08-22T15:06:06.662Z,19.60
2017-08-22T15:08:34.291Z,19.40
2017-08-22T15:11:01.796Z,19.10
2017-08-22T15:13:29.318Z,18.80
2017-08-22T15:15:57.623Z,19.00
2017-08-22T15:18:25.270Z,18.90
2017-08-22T15:20:52.847Z,18.80
2017-08-22T15:23:20.944Z,18.60
2017-08-22T15:25:48.535Z,18.70
2017-08-22T15:28:16.115Z,18.50
2017-08-22T15:30:43.766Z,18.40
2017-08-22T15:33:12.163Z,18.20
2017-08-22T15:35:39.746Z,18.10
2017-08-22T15:38:07.322Z,18.00
2017-08-22T15:40:35.827Z,18.00
2017-08-22T15:43:03.416Z,17.80
2017-08-22T15:45:31.030Z,17.50
2017-08-22T15:47:58.631Z,17.30
2017-08-22T15:50:26.226Z,17.20
2017-08-22T15:52:53.851Z,17.20
2017-08-22T15:55:21.735Z,17.30
2017-08-22T15:57:49.283Z,17.40
2017-08-22T16:00:16.913Z,17.50
2017-08-22T16:02:46.461Z,17.40
2017-08-22T16:05:14.031Z,17.40
2017-08-22T16:07:42.612Z,17.10
2017-08-22T16:10:10.180Z,17.00
2017-08-22T16:12:37.811Z,16.80
2017-08-22T16:15:05.416Z,16.70
2017-08-22T16:17:33.039Z,16.70
2017-08-22T16:20:00.639Z,16.60
2017-08-22T16:22:28.375Z,16.50
2017-08-22T16:24:55.940Z,16.40
2017-08-22T16:27:23.550Z,16.40
2017-08-22T16:29:51.987Z,16.30
2017-08-22T16:32:19.521Z,16.40
2017-08-22T16:34:47.120Z,16.40
2017-08-22T16:37:14.754Z,16.30
2017-08-22T16:39:42.323Z,16.20
2017-08-22T16:42:09.906Z,16.20
2017-08-22T16:44:37.704Z,16.20
2017-08-22T16:47:05.353Z,16.10
2017-08-22T16:49:32.942Z,15.90
2017-08-22T16:52:00.560Z,15.90
2017-08-22T16:54:28.102Z,15.80
2017-08-22T16:56:55.656Z,15.80
2017-08-22T16:59:23.261Z,15.90
2017-08-22T17:01:50.882Z,15.80
2017-08-22T17:04:18.528Z,15.80
2017-08-22T17:06:46.115Z,15.80
2017-08-22T17:09:13.664Z,15.70
2017-08-22T17:11:41.231Z,15.50
2017-08-22T17:14:09.961Z,15.40
2017-08-22T17:16:37.535Z,15.30
2017-08-22T17:19:05.090Z,15.20
2017-08-22T17:21:32.671Z,15.00
2017-08-22T17:24:00.259Z,14.90
2017-08-22T17:26:27.957Z,14.80
2017-08-22T17:28:55.873Z,14.60
2017-08-22T17:31:23.506Z,14.40
2017-08-22T17:33:51.106Z,14.30
2017-08-22T17:36:18.703Z,14.30
2017-08-22T17:38:46.342Z,14.20
2017-08-22T17:41:17.266Z,14.10
2017-08-22T17:43:44.862Z,14.10
2017-08-22T17:46:12.477Z,14.10
2017-08-22T17:48:40.034Z,14.10
2017-08-22T17:51:07.911Z,14.00
2017-08-22T17:53:35.475Z,14.00
2017-08-22T17:56:03.050Z,13.90
2017-08-22T17:58:30.753Z,13.80
2017-08-22T18:00:58.347Z,13.70
2017-08-22T18:03:25.926Z,13.60
2017-08-22T18:05:53.535Z,13.50
2017-08-22T18:08:21.167Z,13.50
2017-08-22T18:10:48.728Z,13.40
2017-08-22T18:13:16.412Z,13.30
2017-08-22T18:15:44.726Z,13.20
2017-08-22T18:18:12.287Z,13.20
2017-08-22T18:20:39.908Z,13.20
2017-08-22T18:23:07.489Z,13.10
2017-08-22T18:25:35.031Z,13.00
2017-08-22T18:28:02.707Z,12.90
2017-08-22T18:30:30.278Z,12.90
2017-08-22T18:32:57.941Z,12.70
2017-08-22T18:35:25.717Z,12.50
2017-08-22T18:37:53.303Z,12.40
2017-08-22T18:40:20.842Z,12.30
2017-08-22T18:42:48.513Z,12.10
2017-08-22T18:45:16.171Z,12.00
2017-08-22T18:47:44.935Z,11.90
2017-08-22T18:50:12.769Z,11.80
2017-08-22T18:52:40.326Z,11.70
2017-08-22T18:55:08.985Z,11.60
2017-08-22T18:57:36.910Z,11.50
2017-08-22T19:00:05.014Z,11.40
2017-08-22T19:02:32.938Z,11.40
2017-08-22T19:05:00.512Z,11.40
2017-08-22T19:07:28.090Z,11.30
2017-08-22T19:09:55.723Z,11.20
2017-08-22T19:12:26.160Z,11.10
2017-08-22T19:14:53.754Z,11.10
2017-08-22T19:17:21.395Z,11.00
2017-08-22T19:19:49.101Z,10.90
2017-08-22T19:22:16.736Z,10.90
2017-08-22T19:24:48.322Z,10.80
2017-08-22T19:27:15.975Z,10.90
2017-08-22T19:29:44.735Z,10.80
2017-08-22T19:32:12.367Z,10.80
2017-08-22T19:34:40.052Z,10.80
2017-08-22T19:37:07.651Z,10.70
2017-08-22T19:39:35.337Z,10.60
2017-08-22T19:42:03.923Z,10.60
2017-08-22T19:44:31.535Z,10.50
2017-08-22T19:46:59.129Z,10.50
2017-08-22T19:49:26.708Z,10.40
2017-08-22T19:51:54.354Z,10.40
2017-08-22T19:54:21.938Z,10.40
2017-08-22T19:56:49.609Z,10.30
2017-08-22T19:59:17.228Z,10.30
2017-08-22T20:01:45.400Z,10.20
2017-08-22T20:04:13.053Z,10.20
2017-08-22T20:06:40.697Z,10.20
2017-08-22T20:09:09.000Z,10.20
2017-08-22T20:11:36.694Z,10.20
2017-08-22T20:14:04.335Z,10.20
2017-08-22T20:16:31.987Z,10.10
2017-08-22T20:18:59.651Z,10.10
2017-08-22T20:21:27.319Z,10.00
2017-08-22T20:23:54.934Z,10.00
2017-08-22T20:26:23.314Z,10.00
2017-08-22T20:28:50.918Z,10.00
2017-08-22T20:31:18.522Z,9.90
2017-08-22T20:33:46.168Z,9.80
2017-08-22T20:36:13.775Z,9.80
2017-08-22T20:38:41.383Z,9.70
2017-08-22T20:41:09.159Z,9.60
2017-08-22T20:43:36.740Z,9.60
2017-08-22T20:46:04.344Z,9.50
2017-08-22T20:48:32.176Z,9.40
2017-08-22T20:50:59.754Z,9.40
2017-08-22T20:53:27.320Z,9.40
2017-08-22T20:55:55.042Z,9.40
2017-08-22T20:58:23.179Z,9.30
2017-08-22T21:00:50.827Z,9.30
2017-08-22T21:03:18.590Z,9.20
2017-08-22T21:05:46.140Z,9.10
2017-08-22T21:08:13.699Z,9.10
2017-08-22T21:10:41.326Z,9.00
2017-08-22T21:13:08.901Z,9.00
2017-08-22T21:15:36.439Z,8.90
2017-08-22T21:18:04.054Z,8.90
2017-08-22T21:20:31.657Z,8.90
2017-08-22T21:22:59.219Z,8.80
2017-08-22T21:25:26.867Z,8.80
2017-08-22T21:27:54.412Z,8.80
2017-08-22T21:30:21.959Z,8.70
2017-08-22T21:32:49.736Z,8.70
2017-08-22T21:35:17.249Z,8.70
2017-08-22T21:37:45.580Z,8.60
2017-08-22T21:40:13.403Z,8.60
2017-08-22T21:42:41.062Z,8.60
2017-08-22T21:45:08.999Z,8.60
2017-08-22T21:47:36.599Z,8.60
2017-08-22T21:50:04.111Z,8.60
2017-08-22T21:52:31.826Z,8.60
2017-08-22T21:54:59.393Z,8.60
2017-08-22T21:57:26.953Z,8.70
2017-08-22T21:59:54.508Z,8.70
2017-08-22T22:02:22.126Z,8.70
2017-08-22T22:04:49.709Z,8.80
2017-08-22T22:07:17.363Z,8.70
2017-08-22T22:09:44.928Z,8.70
2017-08-22T22:12:12.491Z,8.70
2017-08-22T22:14:40.032Z,8.70
2017-08-22T22:17:07.589Z,8.60
2017-08-22T22:19:35.132Z,8.50
2017-08-22T22:22:02.680Z,8.60
2017-08-22T22:24:30.286Z,8.70
2017-08-22T22:26:57.838Z,8.70
2017-08-22T22:29:25.394Z,8.70
2017-08-22T22:31:52.956Z,8.80
2017-08-22T22:34:20.502Z,8.70
2017-08-22T22:36:48.059Z,8.70
2017-08-22T22:39:15.661Z,8.60
2017-08-22T22:41:43.234Z,8.60
2017-08-22T22:44:10.799Z,8.50
2017-08-22T22:46:38.404Z,8.40
2017-08-22T22:49:05.982Z,8.40
2017-08-22T22:51:33.545Z,8.40
2017-08-22T22:54:01.104Z,8.30
2017-08-22T22:56:28.632Z,8.30
2017-08-22T22:58:56.221Z,8.20
2017-08-22T23:01:23.789Z,8.20
2017-08-22T23:03:51.339Z,8.10
2017-08-22T23:06:18.856Z,8.10
2017-08-22T23:08:46.550Z,8.00
2017-08-22T23:11:14.122Z,8.00
2017-08-22T23:13:41.694Z,7.90
2017-08-22T23:16:09.272Z,7.80
2017-08-22T23:18:36.842Z,7.80
2017-08-22T23:21:04.350Z,7.70
2017-08-22T23:23:31.978Z,7.60
2017-08-22T23:25:59.502Z,7.60
2017-08-22T23:28:27.010Z,7.50
2017-08-22T23:30:54.734Z,7.50
2017-08-22T23:33:22.269Z,7.40
2017-08-22T23:35:49.823Z,7.40
2017-08-22T23:38:17.403Z,7.40
2017-08-22T23:40:44.954Z,7.30
2017-08-22T23:43:12.492Z,7.40
2017-08-22T23:45:40.071Z,7.40
2017-08-22T23:48:07.622Z,7.40
2017-08-22T23:50:35.142Z,7.40
2017-08-22T23:53:02.712Z,7.40
2017-08-22T23:55:30.246Z,7.40
2017-08-22T23:57:57.800Z,7.40
